Time;durP1;ratioP1;P1;durP2;ratioP2;P2;SDS_P1;SDS_P2;PMS_P1;PMS_P2;Temp;Humidity;BMP_temperature;BMP_pressure;BME280_temperature;BME280_humidity;BME280_pressure;Samples;Min_cycle;Max_cycle;Signal;HPM_P1;HPM_P2
2021/09/06 00:01:29;;;;;;;;;10.75;9.75;;;;;13.75;50.67;102078.06;4861892;29;10063;-78
2021/09/06 00:04:24;;;;;;;;;10.75;10.50;;;;;13.81;51.31;102078.75;4861392;29;11156;-77
2021/09/06 00:07:19;;;;;;;;;9.00;9.00;;;;;13.77;50.57;102077.72;4860465;29;10114;-77
2021/09/06 00:09:53;;;;;;;;;13.00;11.75;;;;;13.71;50.96;102070.66;4862504;29;10224;-77
2021/09/06 00:12:48;;;;;;;;;16.50;16.50;;;;;13.65;51.12;102081.09;4854085;29;10104;-77
2021/09/06 00:15:44;;;;;;;;;17.75;17.75;;;;;13.57;50.75;102073.50;4844969;29;10303;-77
2021/09/06 00:18:40;;;;;;;;;20.00;18.00;;;;;13.58;51.24;102084.34;4853931;29;10583;-77
2021/09/06 00:21:35;;;;;;;;;21.00;18.00;;;;;13.43;50.79;102081.94;4871435;29;10581;-78
2021/09/06 00:24:33;;;;;;;;;16.25;16.25;;;;;13.50;51.09;102076.75;4870388;29;10630;-78
2021/09/06 00:27:29;;;;;;;;;14.50;14.50;;;;;13.43;50.79;102084.72;4859990;29;10840;-78
2021/09/06 00:30:24;;;;;;;;;15.75;15.75;;;;;13.32;50.82;102080.53;4862222;29;10693;-77
2021/09/06 00:33:20;;;;;;;;;14.25;14.25;;;;;13.16;51.99;102079.25;4857870;29;10584;-77
2021/09/06 00:36:15;;;;;;;;;10.75;10.75;;;;;13.07;53.54;102088.34;4856653;29;10633;-77
2021/09/06 00:39:11;;;;;;;;;6.50;5.75;;;;;12.80;54.51;102077.28;4861061;29;11159;-77
2021/09/06 00:42:06;;;;;;;;;13.00;11.25;;;;;12.47;55.58;102091.34;4856123;29;10552;-77
2021/09/06 00:45:04;;;;;;;;;8.75;8.75;;;;;12.39;55.59;102086.50;4842258;29;10539;-77
2021/09/06 00:47:59;;;;;;;;;10.50;10.50;;;;;12.26;55.18;102087.34;4853422;29;10690;-77
2021/09/06 00:50:55;;;;;;;;;11.25;11.25;;;;;12.25;54.84;102089.28;4871326;29;10748;-78
2021/09/06 00:53:51;;;;;;;;;10.50;10.50;;;;;12.18;55.37;102094.41;4860515;29;10916;-77
2021/09/06 00:56:46;;;;;;;;;13.25;12.00;;;;;12.21;56.23;102093.00;4861341;29;11426;-77
2021/09/06 00:59:42;;;;;;;;;13.25;12.25;;;;;12.10;57.15;102089.59;4861157;29;10742;-77
2021/09/06 01:02:38;;;;;;;;;11.00;11.00;;;;;12.12;57.08;102095.69;4859483;29;10727;-77
2021/09/06 01:05:33;;;;;;;;;13.00;13.00;;;;;12.03;57.27;102094.72;4860529;29;10638;-77
2021/09/06 01:08:29;;;;;;;;;12.00;10.50;;;;;12.01;57.80;102096.16;4859649;29;10727;-77
2021/09/06 01:10:57;;;;;;;;;11.50;11.50;;;;;11.83;58.90;102098.72;4844671;29;10842;-77
2021/09/06 01:13:53;;;;;;;;;8.75;8.75;;;;;11.92;58.19;102099.66;4847876;29;11011;-77
2021/09/06 01:16:49;;;;;;;;;10.50;10.50;;;;;11.96;57.99;102094.28;4860264;29;11675;-77
2021/09/06 01:19:44;;;;;;;;;13.00;13.00;;;;;11.95;57.36;102099.03;4861536;29;11367;-77
2021/09/06 01:22:40;;;;;;;;;10.50;10.50;;;;;11.77;58.94;102099.91;4859098;29;11651;-77
2021/09/06 01:25:36;;;;;;;;;14.75;14.75;;;;;11.86;58.19;102092.53;4856056;29;10985;-77
2021/09/06 01:28:32;;;;;;;;;12.75;12.75;;;;;11.93;58.13;102095.75;4860195;29;10873;-77
2021/09/06 01:31:27;;;;;;;;;13.50;11.75;;;;;11.94;58.31;102093.78;4854670;29;11058;-77
2021/09/06 01:34:23;;;;;;;;;14.75;12.25;;;;;11.79;58.81;102085.72;4861389;29;10794;-77
2021/09/06 01:36:50;;;;;;;;;16.25;14.75;;;;;11.94;58.59;102094.59;4859596;29;11248;-77
2021/09/06 01:39:46;;;;;;;;;19.00;17.50;;;;;11.80;58.88;102090.13;4859318;29;11080;-77
2021/09/06 01:42:42;;;;;;;;;17.25;17.25;;;;;11.67;59.02;102089.00;4856182;29;11194;-78
2021/09/06 01:45:37;;;;;;;;;14.00;13.75;;;;;11.68;58.77;102087.88;4858982;29;11135;-78
2021/09/06 01:48:33;;;;;;;;;13.00;13.00;;;;;11.68;59.37;102094.22;4861207;29;11236;-77
2021/09/06 01:51:28;;;;;;;;;13.75;13.75;;;;;11.76;59.27;102094.66;4858105;29;10979;-77
2021/09/06 01:54:24;;;;;;;;;20.75;17.50;;;;;11.64;59.61;102095.13;4853312;29;11350;-78
2021/09/06 01:57:20;;;;;;;;;21.25;21.25;;;;;11.54;60.01;102095.31;4870420;29;11136;-77
2021/09/06 02:00:16;;;;;;;;;35.00;27.00;;;;;11.55;60.19;102091.41;4858918;29;11341;-78
2021/09/06 02:03:11;;;;;;;;;39.00;34.00;;;;;11.57;60.01;102089.16;4859230;29;11766;-78
2021/09/06 02:06:08;;;;;;;;;53.00;40.75;;;;;11.43;60.47;102091.09;4859208;29;12203;-77
2021/09/06 02:09:03;;;;;;;;;42.25;37.75;;;;;11.64;59.88;102095.13;4857377;29;11719;-77
2021/09/06 02:11:59;;;;;;;;;45.25;39.25;;;;;11.58;60.23;102094.41;4856767;29;11663;-77
2021/09/06 02:14:55;;;;;;;;;52.50;40.50;;;;;11.59;60.04;102093.28;4860591;29;11654;-77
2021/09/06 02:17:50;;;;;;;;;31.25;30.25;;;;;11.66;60.14;102098.44;4859270;29;12503;-78
2021/09/06 02:20:46;;;;;;;;;41.25;35.50;;;;;11.55;60.66;102103.31;4852830;29;11675;-77
2021/09/06 02:23:42;;;;;;;;;43.75;39.75;;;;;11.56;60.78;102096.66;4853459;29;11739;-77
2021/09/06 02:26:37;;;;;;;;;43.25;38.75;;;;;11.46;61.59;102094.06;4869880;29;11720;-77
2021/09/06 02:29:33;;;;;;;;;52.50;40.75;;;;;11.44;61.50;102096.31;4852668;29;11698;-77
2021/09/06 02:32:28;;;;;;;;;44.25;39.00;;;;;11.30;61.78;102110.13;4846484;29;11676;-77
2021/09/06 02:35:24;;;;;;;;;43.75;37.25;;;;;11.31;62.11;102125.59;4860385;29;11762;-77
2021/09/06 02:37:52;;;;;;;;;32.50;28.25;;;;;11.34;62.14;102113.09;4860111;29;12405;-76
2021/09/06 02:40:47;;;;;;;;;43.00;37.00;;;;;11.41;62.02;102119.88;4869651;29;11705;-76
2021/09/06 02:43:43;;;;;;;;;45.00;36.75;;;;;11.14;62.06;102123.38;4859040;29;11662;-76
2021/09/06 02:46:39;;;;;;;;;54.00;46.25;;;;;11.21;61.53;102134.06;4858838;29;11752;-76
2021/09/06 02:49:34;;;;;;;;;57.25;46.75;;;;;11.20;61.72;102129.66;4859040;29;11754;-77
2021/09/06 02:52:16;;;;;;;;;33.25;23.50;;;;;11.22;61.86;102134.91;4857135;29;11917;-77
2021/09/06 02:55:12;;;;;;;;;57.50;47.75;;;;;11.14;62.14;102136.41;4858905;29;11736;-76
2021/09/06 02:58:07;;;;;;;;;67.75;54.50;;;;;11.32;61.96;102138.31;4855107;29;11734;-76
2021/09/06 03:01:03;;;;;;;;;71.00;52.25;;;;;11.21;61.96;102142.38;4854103;29;11724;-77
2021/09/06 03:03:58;;;;;;;;;69.50;52.00;;;;;11.14;62.73;102142.75;4875108;29;11752;-78
2021/09/06 03:06:54;;;;;;;;;55.50;45.75;;;;;11.09;62.20;102147.53;4864420;29;12461;-78
2021/09/06 03:09:49;;;;;;;;;66.75;54.00;;;;;11.15;62.31;102146.34;4841432;29;11786;-79
2021/09/06 03:12:17;;;;;;;;;66.50;52.50;;;;;11.17;62.53;102148.81;4843993;29;11174;-79
2021/09/06 03:15:13;;;;;;;;;70.75;53.00;;;;;10.97;63.24;102141.63;4860152;29;11825;-78
2021/09/06 03:18:08;;;;;;;;;60.00;48.00;;;;;10.99;63.59;102150.47;4861789;29;11748;-79
2021/09/06 03:21:04;;;;;;;;;64.25;50.50;;;;;10.96;63.96;102156.56;4858985;29;11745;-78
2021/09/06 03:23:45;;;;;;;;;67.00;50.25;;;;;11.05;63.57;102166.72;4862858;29;11744;-79
2021/09/06 03:26:41;;;;;;;;;67.50;55.75;;;;;11.08;63.67;102166.09;4863548;29;11820;-79
2021/09/06 03:29:37;;;;;;;;;74.00;58.00;;;;;11.10;63.35;102168.56;4857629;29;11761;-78
2021/09/06 03:32:32;;;;;;;;;75.50;58.50;;;;;11.12;63.28;102174.66;4865180;29;11750;-79
2021/09/06 03:35:28;;;;;;;;;83.25;60.50;;;;;11.11;64.30;102176.56;4858007;29;11738;-79
2021/09/06 03:38:17;;;;;;;;;79.75;60.50;;;;;11.11;64.47;102182.09;4862846;29;11765;-79
2021/09/06 03:41:12;;;;;;;;;81.00;59.75;;;;;11.19;64.45;102188.09;4857802;29;11839;-79
2021/09/06 03:44:08;;;;;;;;;86.25;63.50;;;;;11.13;64.74;102188.19;4861876;29;11786;-79
2021/09/06 03:47:04;;;;;;;;;74.00;60.50;;;;;11.24;64.89;102183.31;4864803;29;11772;-79
2021/09/06 03:49:59;;;;;;;;;85.00;65.50;;;;;11.08;65.46;102190.19;4855977;29;11721;-79
2021/09/06 03:52:55;;;;;;;;;76.25;61.00;;;;;11.18;65.58;102192.81;4872208;29;11943;-79
2021/09/06 03:55:50;;;;;;;;;79.75;60.00;;;;;11.28;64.98;102200.19;4861587;29;11768;-78
2021/09/06 03:58:46;;;;;;;;;90.00;71.25;;;;;11.36;64.55;102205.03;4858488;29;11781;-78
2021/09/06 04:01:41;;;;;;;;;83.25;60.50;;;;;11.46;64.23;102201.28;4861359;29;11798;-80
2021/09/06 04:04:37;;;;;;;;;84.25;67.25;;;;;11.54;64.66;102208.94;4862007;29;11727;-79
2021/09/06 04:07:32;;;;;;;;;91.50;68.75;;;;;11.62;64.89;102206.28;4860019;29;11798;-79
2021/09/06 04:10:00;;;;;;;;;72.25;53.50;;;;;11.74;65.19;102210.56;4861464;29;11805;-79
2021/09/06 04:12:56;;;;;;;;;71.25;53.25;;;;;11.89;65.56;102215.88;4852688;29;11829;-78
2021/09/06 04:15:51;;;;;;;;;52.75;45.25;;;;;13.05;73.52;102212.00;4843076;29;11836;-76
2021/09/06 04:18:47;;;;;;;;;38.50;36.50;;;;;13.29;65.08;102222.91;4863572;29;11890;-77
2021/09/06 04:21:42;;;;;;;;;31.00;31.00;;;;;13.40;64.10;102217.91;4842538;29;11686;-78
2021/09/06 04:24:38;;;;;;;;;25.00;24.50;;;;;13.79;63.92;102225.59;4830816;29;11452;-78
2021/09/06 04:27:34;;;;;;;;;21.75;21.75;;;;;13.97;63.72;102219.03;4842938;29;10969;-78
2021/09/06 04:30:04;;;;;;;;;25.50;25.50;;;;;13.93;62.48;102223.56;4842905;29;10756;-78
2021/09/06 04:32:32;;;;;;;;;17.25;17.00;;;;;13.80;62.01;102224.47;4827744;29;10694;-78
2021/09/06 04:35:00;;;;;;;;;29.00;29.00;;;;;14.38;67.39;102223.53;4843899;29;11080;-78
2021/09/06 04:37:29;;;;;;;;;26.25;26.00;;;;;15.22;62.07;102225.34;4842994;29;10479;-79
2021/09/06 04:40:09;;;;;;;;;22.25;19.50;;;;;15.22;57.33;102228.94;4843794;29;10295;-78
2021/09/06 04:42:37;;;;;;;;;17.00;17.00;;;;;15.11;59.58;102226.81;4842484;29;10121;-79
2021/09/06 04:45:07;;;;;;;;;16.25;15.50;;;;;15.05;56.44;102228.91;4843858;29;10118;-78
2021/09/06 04:47:37;;;;;;;;;25.75;23.75;;;;;15.95;61.33;102219.94;4827988;29;9943;-78
2021/09/06 04:50:05;;;;;;;;;19.00;19.00;;;;;15.43;54.68;102231.09;4844000;29;10127;-78
2021/09/06 04:52:33;;;;;;;;;22.00;22.00;;;;;15.49;59.66;102227.03;4843402;29;10102;-78
2021/09/06 04:55:03;;;;;;;;;24.00;21.75;;;;;15.56;55.38;102228.16;4842602;29;10125;-78
2021/09/06 04:57:31;;;;;;;;;18.00;18.00;;;;;15.87;58.31;102227.19;4843333;29;9688;-78
2021/09/06 04:59:59;;;;;;;;;19.50;19.50;;;;;15.65;56.39;102231.00;4843604;29;9846;-78
2021/09/06 05:02:27;;;;;;;;;25.50;20.25;;;;;15.89;58.32;102227.69;4843158;29;9784;-79
2021/09/06 05:04:55;;;;;;;;;13.00;13.00;;;;;15.79;54.24;102233.59;4842388;29;9869;-78
2021/09/06 05:07:24;;;;;;;;;8.33;8.33;;;;;15.44;54.12;102232.75;4843498;29;9587;-78
2021/09/06 05:09:52;;;;;;;;;16.25;16.25;;;;;15.30;58.98;102228.13;4843178;29;9353;-78
2021/09/06 05:12:19;;;;;;;;;6.67;6.67;;;;;15.72;56.20;102236.03;4826895;29;9602;-78
2021/09/06 05:15:02;;;;;;;;;12.00;12.00;;;;;16.10;56.56;102231.44;4842178;29;9536;-78
2021/09/06 05:17:31;;;;;;;;;13.50;13.25;;;;;16.26;54.51;102234.53;4843209;29;9398;-79
2021/09/06 05:19:59;;;;;;;;;10.67;9.33;;;;;16.75;53.86;102234.22;4843315;29;9461;-78
2021/09/06 05:22:26;;;;;;;;;9.67;9.67;;;;;16.63;52.20;102238.47;4842827;29;9048;-79
2021/09/06 05:24:55;;;;;;;;;7.00;7.00;;;;;15.91;50.01;102242.13;4843004;29;9117;-78
2021/09/06 05:27:23;;;;;;;;;11.00;10.67;;;;;16.21;56.34;102243.06;4843118;29;9232;-79
2021/09/06 05:29:51;;;;;;;;;11.67;11.67;;;;;16.81;55.54;102244.88;4826892;29;9259;-79
2021/09/06 05:32:19;;;;;;;;;8.00;8.00;;;;;17.18;52.09;102242.38;4826810;29;9803;-79
2021/09/06 05:34:47;;;;;;;;;9.00;9.00;;;;;16.96;51.22;102243.47;4842139;29;9069;-79
2021/09/06 05:37:15;;;;;;;;;9.67;9.67;;;;;17.03;53.81;102248.56;4826857;29;9070;-79
2021/09/06 05:39:43;;;;;;;;;10.00;10.00;;;;;17.04;52.69;102252.97;4842936;29;9772;-79
2021/09/06 05:42:11;;;;;;;;;4.75;4.75;;;;;16.80;49.25;102250.78;4826666;29;9706;-79
2021/09/06 05:44:40;;;;;;;;;7.75;7.75;;;;;16.75;49.52;102260.19;4842679;29;8881;-79
2021/09/06 05:47:08;;;;;;;;;17.33;14.00;;;;;17.14;50.09;102264.59;4842820;29;8869;-78
2021/09/06 05:49:37;;;;;;;;;3.75;3.75;;;;;17.01;49.01;102260.03;4842720;29;8970;-79
2021/09/06 05:52:04;;;;;;;;;6.25;6.25;;;;;17.01;50.22;102262.03;4826617;29;9639;-79
2021/09/06 05:54:32;;;;;;;;;6.50;6.50;;;;;16.87;51.04;102254.72;4842361;29;8889;-79
2021/09/06 05:57:00;;;;;;;;;6.25;6.25;;;;;17.42;50.69;102261.28;4842534;29;8924;-79
2021/09/06 05:59:29;;;;;;;;;5.75;5.75;;;;;17.51;48.29;102268.47;4842490;29;8888;-79
2021/09/06 06:01:56;;;;;;;;;3.00;3.00;;;;;17.34;47.84;102262.19;4826423;29;8899;-78
2021/09/06 06:04:24;;;;;;;;;9.75;9.75;;;;;17.74;51.19;102271.78;4849502;29;8878;-78
2021/09/06 06:06:52;;;;;;;;;7.25;7.25;;;;;17.95;48.32;102270.94;4864205;29;8885;-79
2021/09/06 06:09:50;;;;;;;;;5.25;5.25;;;;;17.69;49.88;102273.91;4853299;29;8989;-79
2021/09/06 06:12:45;;;;;;;;;6.25;6.25;;;;;17.85;48.71;102274.97;4853186;29;8897;-79
2021/09/06 06:15:41;;;;;;;;;9.00;8.00;;;;;18.03;50.57;102279.28;4857760;29;8892;-79
2021/09/06 06:18:37;;;;;;;;;3.00;3.00;;;;;17.72;43.70;102279.69;4872489;29;8852;-78
2021/09/06 06:21:33;;;;;;;;;5.75;5.75;;;;;17.69;44.55;102277.53;4868666;29;8872;-79
2021/09/06 06:24:28;;;;;;;;;5.75;5.75;;;;;17.86;44.69;102278.56;4873992;29;8882;-80
2021/09/06 06:27:24;;;;;;;;;10.50;7.50;;;;;18.14;46.58;102284.44;4855748;29;8994;-81
2021/09/06 06:30:20;;;;;;;;;18.50;17.50;;;;;18.24;49.49;102284.81;4859187;29;8989;-80
2021/09/06 06:33:16;;;;;;;;;6.25;6.00;;;;;18.67;44.32;102285.56;4851649;29;8856;-82
2021/09/06 06:35:59;;;;;;;;;8.75;8.75;;;;;18.33;42.75;102281.94;4842019;29;8921;-79
2021/09/06 06:38:55;;;;;;;;;2.75;2.75;;;;;18.55;42.42;102283.50;4842141;29;8869;-80
2021/09/06 06:41:51;;;;;;;;;8.25;8.25;;;;;18.79;45.52;102285.59;4828618;29;8877;-81
2021/09/06 06:44:47;;;;;;;;;7.50;7.50;;;;;18.84;46.48;102290.94;4870198;29;8920;-79
2021/09/06 06:47:42;;;;;;;;;5.50;5.50;;;;;18.81;44.39;102288.84;4868599;29;8852;-80
2021/09/06 06:50:38;;;;;;;;;11.75;11.00;;;;;18.84;43.52;102290.94;4870235;29;9622;-80
2021/09/06 06:53:20;;;;;;;;;6.75;6.50;;;;;18.86;43.19;102291.41;4882446;29;8883;-80
2021/09/06 06:55:48;;;;;;;;;6.50;6.50;;;;;18.95;44.38;102289.34;4882188;29;8880;-79
2021/09/06 06:58:43;;;;;;;;;6.50;6.50;;;;;19.14;41.66;102291.53;4869531;29;8914;-80
2021/09/06 07:01:39;;;;;;;;;9.75;9.00;;;;;19.23;42.17;102297.03;4869057;29;8860;-82
2021/09/06 07:04:35;;;;;;;;;4.00;4.00;;;;;19.32;40.29;102294.91;4881387;29;8979;-80
2021/09/06 07:07:30;;;;;;;;;19.00;13.75;;;;;19.49;41.75;102302.28;4851820;29;8968;-80
2021/09/06 07:09:59;;;;;;;;;13.00;9.25;;;;;19.61;40.04;102302.28;4878775;29;8977;-79
2021/09/06 07:12:54;;;;;;;;;8.75;8.75;;;;;19.92;44.08;102301.59;4849969;29;8873;-79
2021/09/06 07:15:22;;;;;;;;;6.00;6.00;;;;;20.07;39.78;102305.66;4874141;29;8884;-81
2021/09/06 07:18:18;;;;;;;;;3.00;3.00;;;;;20.17;41.33;102299.53;4856999;29;8869;-82
2021/09/06 07:21:13;;;;;;;;;5.25;5.25;;;;;20.30;40.35;102301.09;4881216;29;9598;-79
2021/09/06 07:24:09;;;;;;;;;4.75;4.75;;;;;20.09;38.89;102298.53;4882002;29;8875;-80
2021/09/06 07:27:04;;;;;;;;;8.25;8.25;;;;;19.63;39.04;102297.97;4881247;29;8887;-81
2021/09/06 07:30:00;;;;;;;;;10.25;8.75;;;;;20.32;42.06;102297.94;4881194;29;8990;-82
2021/09/06 07:32:56;;;;;;;;;7.25;7.25;;;;;20.51;41.58;102303.72;4881129;29;8955;-81
2021/09/06 07:35:52;;;;;;;;;10.00;8.50;;;;;20.66;42.02;102305.75;4880970;29;8892;-81
2021/09/06 07:38:20;;;;;;;;;10.25;8.25;;;;;20.87;40.68;102302.69;4882330;29;8860;-81
2021/09/06 07:40:47;;;;;;;;;10.75;10.00;;;;;20.41;36.51;102307.03;4881765;29;8871;-79
2021/09/06 07:43:15;;;;;;;;;11.25;10.25;;;;;20.15;39.66;102299.88;4881631;29;8884;-81
2021/09/06 07:45:44;;;;;;;;;11.50;11.50;;;;;20.59;38.96;102308.34;4865419;29;8871;-80
2021/09/06 07:48:14;;;;;;;;;10.75;9.00;;;;;20.88;40.13;102301.50;4881797;29;8894;-81
2021/09/06 07:50:44;;;;;;;;;12.75;12.75;;;;;20.88;37.53;102295.06;4881694;29;8884;-80
2021/09/06 07:53:12;;;;;;;;;13.00;13.00;;;;;20.59;36.86;102299.94;4881708;29;8926;-80
2021/09/06 07:55:40;;;;;;;;;10.25;10.25;;;;;20.68;36.26;102294.94;4881708;29;8876;-80
2021/09/06 07:58:08;;;;;;;;;13.00;13.00;;;;;20.88;36.89;102289.44;4864811;29;8879;-81
2021/09/06 08:00:35;;;;;;;;;12.50;11.25;;;;;20.85;34.76;102299.38;4881509;29;8887;-82
2021/09/06 08:03:03;;;;;;;;;8.00;8.00;;;;;20.77;36.31;102292.75;4881376;29;8871;-80
2021/09/06 08:05:32;;;;;;;;;14.25;13.00;;;;;21.15;35.37;102294.13;4881526;29;8934;-82
2021/09/06 08:08:00;;;;;;;;;10.25;10.25;;;;;21.17;36.82;102294.59;4881714;29;8876;-82
2021/09/06 08:10:38;;;;;;;;;9.75;8.75;;;;;21.00;34.65;102289.31;4881470;29;8929;-82
2021/09/06 08:13:07;;;;;;;;;79.50;64.00;;;;;21.05;34.16;102283.44;4881208;29;8884;-80
2021/09/06 08:15:36;;;;;;;;;10.00;8.75;;;;;21.03;33.98;102286.59;4881086;29;11151;-82
2021/09/06 08:18:04;;;;;;;;;8.00;7.75;;;;;21.03;33.86;102294.22;4881691;29;8914;-80
2021/09/06 08:20:32;;;;;;;;;7.50;7.50;;;;;21.26;33.58;102283.94;4881207;29;8922;-81
2021/09/06 08:23:00;;;;;;;;;9.75;9.75;;;;;21.22;33.63;102285.03;4881266;29;8884;-80
2021/09/06 08:25:30;;;;;;;;;9.25;9.25;;;;;21.29;33.61;102279.59;4879877;29;8914;-81
2021/09/06 08:27:57;;;;;;;;;12.50;12.50;;;;;21.57;33.88;102283.09;4879931;29;8875;-81
2021/09/06 08:30:25;;;;;;;;;9.75;8.75;;;;;22.02;33.83;102280.81;4880887;29;8899;-81
2021/09/06 08:32:53;;;;;;;;;6.75;6.75;;;;;22.14;34.84;102273.03;4864608;29;8943;-81
2021/09/06 08:35:22;;;;;;;;;10.75;10.50;;;;;21.94;33.13;102279.84;4881147;29;8887;-78
2021/09/06 08:37:49;;;;;;;;;6.50;6.50;;;;;22.07;33.33;102281.31;4881149;29;8884;-80
2021/09/06 08:40:17;;;;;;;;;7.25;7.25;;;;;21.26;32.99;102269.06;4881016;29;8868;-80
2021/09/06 08:42:44;;;;;;;;;10.50;10.50;;;;;21.66;33.41;102268.78;4881057;29;8880;-80
2021/09/06 08:45:13;;;;;;;;;9.50;9.00;;;;;21.72;33.58;102266.50;4879740;29;8923;-81
2021/09/06 08:47:42;;;;;;;;;11.25;10.75;;;;;21.72;34.32;102269.31;4880805;29;8911;-80
2021/09/06 08:50:12;;;;;;;;;16.75;16.75;;;;;21.55;32.30;102256.50;4880954;29;8947;-81
2021/09/06 08:52:41;;;;;;;;;9.00;9.00;;;;;21.31;33.12;102265.97;4880836;29;8903;-79
2021/09/06 08:55:10;;;;;;;;;4.75;4.75;;;;;21.72;34.16;102256.06;4879878;29;8879;-80
2021/09/06 08:57:38;;;;;;;;;5.25;5.25;;;;;22.17;33.70;102263.06;4880785;29;8959;-84
2021/09/06 09:00:07;;;;;;;;;7.00;7.00;;;;;22.51;34.78;102254.81;4880813;29;8891;-82
2021/09/06 09:02:35;;;;;;;;;8.50;8.50;;;;;22.63;35.23;102243.34;4881693;29;8911;-80
2021/09/06 09:05:08;;;;;;;;;6.20;6.20;;;;;22.38;32.96;102254.97;4879365;29;8919;-80
2021/09/06 09:07:39;;;;;;;;;4.40;4.40;;;;;22.31;31.40;102256.84;4864708;29;8896;-80
2021/09/06 09:10:10;;;;;;;;;3.60;3.60;;;;;22.33;32.21;102254.50;4879673;29;8922;-81
2021/09/06 09:12:39;;;;;;;;;3.00;3.00;;;;;22.40;32.66;102246.97;4879514;29;8914;-81
2021/09/06 09:15:09;;;;;;;;;2.40;2.40;;;;;22.72;31.36;102239.09;4879667;29;9002;-80
2021/09/06 09:17:39;;;;;;;;;6.50;6.50;;;;;23.06;32.17;102246.91;4880315;29;8875;-80
2021/09/06 09:20:08;;;;;;;;;5.20;5.00;;;;;22.76;32.30;102234.31;4879954;29;8884;-82
2021/09/06 09:22:39;;;;;;;;;7.75;7.75;;;;;22.75;30.07;102248.78;4880060;29;8860;-81
2021/09/06 09:25:11;;;;;;;;;6.00;6.00;;;;;22.70;32.90;102247.13;4881078;29;8872;-81
2021/09/06 09:27:43;;;;;;;;;8.20;8.00;;;;;22.15;30.61;102246.50;4878610;29;8907;-79
2021/09/06 09:30:22;;;;;;;;;7.25;7.25;;;;;22.15;31.30;102245.69;4879472;29;8883;-80
2021/09/06 09:33:10;;;;;;;;;8.00;8.00;;;;;22.37;30.51;102244.09;4873210;29;8878;-79
2021/09/06 09:35:38;;;;;;;;;10.20;7.20;;;;;22.62;31.67;102239.72;4869791;29;8895;-77
2021/09/06 09:38:37;;;;;;;;;6.00;5.50;;;;;23.24;32.25;102253.66;4844359;29;8897;-79
2021/09/06 09:41:32;;;;;;;;;1.80;1.00;;;;;23.39;29.26;102249.03;4861325;29;8888;-78
2021/09/06 09:44:29;;;;;;;;;2.40;2.40;;;;;22.69;29.39;102239.81;4853950;29;8864;-78
2021/09/06 09:47:26;;;;;;;;;3.80;3.80;;;;;23.05;30.74;102237.63;4858122;29;8972;-80
2021/09/06 09:50:23;;;;;;;;;6.00;6.00;;;;;23.42;31.91;102248.25;4864597;29;8910;-80
2021/09/06 09:53:21;;;;;;;;;4.20;4.20;;;;;23.05;29.14;102248.91;4862911;29;9626;-81
2021/09/06 09:56:16;;;;;;;;;4.20;4.20;;;;;23.25;29.42;102243.97;4850597;29;9617;-80
2021/09/06 09:59:13;;;;;;;;;5.00;4.60;;;;;23.71;29.40;102250.28;4850579;29;8855;-79
2021/09/06 10:01:56;;;;;;;;;6.00;6.00;;;;;23.44;28.55;102243.84;4866641;29;8925;-79
2021/09/06 10:04:56;;;;;;;;;3.80;3.80;;;;;22.91;29.88;102243.84;4852283;29;8875;-78
2021/09/06 10:07:52;;;;;;;;;6.40;6.40;;;;;22.92;30.78;102250.28;4861730;29;8868;-80
2021/09/06 10:10:41;;;;;;;;;5.40;5.40;;;;;23.07;30.17;102249.34;4852455;29;8986;-80
2021/09/06 10:13:41;;;;;;;;;6.20;6.20;;;;;23.34;29.79;102252.97;4851231;29;8990;-78
2021/09/06 10:16:38;;;;;;;;;6.60;6.60;;;;;23.91;31.56;102247.28;4848274;29;8980;-80
2021/09/06 10:19:45;;;;;;;;;5.20;5.20;;;;;23.53;27.21;102247.19;4840892;29;8878;-79
2021/09/06 10:22:42;;;;;;;;;5.20;5.20;;;;;24.07;28.38;102250.72;4852211;29;8885;-81
2021/09/06 10:25:40;;;;;;;;;5.20;5.20;;;;;24.17;30.24;102246.41;4863989;29;8866;-79
2021/09/06 10:28:36;;;;;;;;;4.80;4.80;;;;;24.50;28.77;102239.91;4846947;29;8898;-78
2021/09/06 10:31:31;;;;;;;;;4.00;4.00;;;;;24.56;30.02;102238.34;4849076;29;8854;-80
2021/09/06 10:34:29;;;;;;;;;4.20;3.80;;;;;24.40;28.23;102245.06;4852182;29;8881;-78
2021/09/06 10:37:29;;;;;;;;;3.00;3.00;;;;;24.33;27.04;102235.69;4862084;29;9063;-79
2021/09/06 10:40:28;;;;;;;;;1.80;1.80;;;;;24.76;26.68;102228.41;4846642;29;8938;-79
2021/09/06 10:43:24;;;;;;;;;3.60;3.60;;;;;24.92;28.06;102231.78;4866956;29;8879;-79
2021/09/06 10:45:56;;;;;;;;;3.60;3.60;;;;;25.25;29.67;102227.19;4857393;29;8947;-80
2021/09/06 10:48:38;;;;;;;;;6.20;6.20;;;;;25.44;27.17;102226.88;4849984;29;8994;-78
2021/09/06 10:51:35;;;;;;;;;8.80;8.80;;;;;24.71;26.35;102228.78;4858673;29;8878;-77
2021/09/06 10:54:35;;;;;;;;;3.80;3.80;;;;;24.83;26.04;102227.63;4855568;29;8876;-77
2021/09/06 10:57:35;;;;;;;;;5.00;5.00;;;;;24.89;29.66;102231.75;4844229;29;8986;-79
2021/09/06 11:00:04;;;;;;;;;5.40;5.40;;;;;24.47;29.73;102229.38;4855029;29;8883;-79
2021/09/06 11:03:04;;;;;;;;;5.80;5.60;;;;;24.09;27.57;102225.72;4840412;29;8965;-78
2021/09/06 11:06:01;;;;;;;;;6.20;5.80;;;;;24.67;29.30;102222.25;4866451;29;9593;-80
2021/09/06 11:08:45;;;;;;;;;3.60;3.60;;;;;24.76;27.97;102224.75;4845207;29;8965;-79
2021/09/06 11:11:13;;;;;;;;;1.80;1.80;;;;;24.62;25.84;102231.94;4864632;29;8868;-79
2021/09/06 11:14:09;;;;;;;;;0.00;0.00;;;;;24.54;24.86;102224.59;4865871;29;8859;-85
2021/09/06 11:17:23;;;;;;;;;3.60;3.60;;;;;24.30;28.25;102223.09;4859785;29;8862;-78
2021/09/06 11:20:19;;;;;;;;;5.80;5.80;;;;;23.99;26.84;102221.56;4857901;29;9617;-81
2021/09/06 11:22:47;;;;;;;;;1.80;1.80;;;;;24.59;30.23;102212.91;4859806;29;8889;-78
2021/09/06 11:25:24;;;;;;;;;4.00;4.00;;;;;24.31;26.49;102216.28;4860033;29;8875;-79
2021/09/06 11:27:53;;;;;;;;;5.00;5.00;;;;;24.25;27.04;102217.00;4869294;29;8871;-78
2021/09/06 11:30:23;;;;;;;;;3.00;3.00;;;;;24.79;27.53;102207.81;4860624;29;8840;-79
2021/09/06 11:33:19;;;;;;;;;74.25;43.75;;;;;24.98;27.39;102215.22;4843203;29;8862;-79
2021/09/06 11:36:16;;;;;;;;;6.00;6.00;;;;;25.12;26.85;102204.03;4837577;29;9581;-79
2021/09/06 11:38:59;;;;;;;;;9.20;7.20;;;;;25.00;26.51;102206.34;4861728;29;8882;-79
2021/09/06 11:41:54;;;;;;;;;4.00;4.00;;;;;24.75;26.33;102197.66;4853369;29;8909;-79
2021/09/06 11:44:51;;;;;;;;;4.40;4.40;;;;;24.73;26.91;102202.91;4869052;29;8894;-78
2021/09/06 11:47:47;;;;;;;;;3.00;3.00;;;;;25.28;28.34;102200.06;4852024;29;8901;-82
2021/09/06 11:50:43;;;;;;;;;3.80;3.80;;;;;25.93;26.51;102202.81;4850669;29;8983;-79
2021/09/06 11:53:39;;;;;;;;;7.00;7.00;;;;;25.96;26.87;102198.38;4838463;29;8868;-78
2021/09/06 11:56:14;;;;;;;;;6.40;5.00;;;;;25.97;25.79;102200.00;4860692;29;8930;-78
2021/09/06 11:59:10;;;;;;;;;10.20;10.20;;;;;26.00;27.67;102194.34;4867791;29;8880;-79
2021/09/06 12:02:12;;;;;;;;;7.40;7.40;;;;;25.90;29.04;102189.44;4849850;29;8894;-78
2021/09/06 12:05:07;;;;;;;;;10.60;10.60;;;;;25.28;26.28;102183.09;4848119;29;8874;-80
2021/09/06 12:08:10;;;;;;;;;5.40;5.40;;;;;24.83;26.32;102188.03;4857411;29;8866;-78
2021/09/06 12:10:50;;;;;;;;;4.20;4.20;;;;;25.44;26.92;102187.22;4840340;29;8885;-78
2021/09/06 12:13:57;;;;;;;;;5.20;5.20;;;;;25.67;25.53;102174.75;4854160;29;8962;-78
2021/09/06 12:17:01;;;;;;;;;11.20;9.20;;;;;25.62;24.42;102187.31;4841111;29;8853;-77
2021/09/06 12:19:39;;;;;;;;;4.00;4.00;;;;;25.95;27.04;102189.06;4862435;29;8894;-77
2021/09/06 12:22:36;;;;;;;;;4.20;4.20;;;;;25.52;24.37;102186.03;4848268;29;8965;-77
2021/09/06 12:25:31;;;;;;;;;9.80;9.00;;;;;25.48;24.32;102185.22;4852192;29;8880;-77
2021/09/06 12:28:27;;;;;;;;;9.80;9.80;;;;;25.82;24.95;102190.63;4852850;29;8887;-78
2021/09/06 12:31:23;;;;;;;;;4.80;4.80;;;;;25.62;26.03;102187.31;4868856;29;8866;-77
2021/09/06 12:34:05;;;;;;;;;5.80;5.80;;;;;25.40;24.16;102188.44;4854342;29;8867;-78
2021/09/06 12:37:03;;;;;;;;;12.00;11.60;;;;;26.21;24.38;102192.75;4850069;29;8866;-76
2021/09/06 12:39:58;;;;;;;;;13.40;12.80;;;;;25.71;24.79;102198.25;4858839;29;8846;-76
2021/09/06 12:42:54;;;;;;;;;12.80;12.00;;;;;25.08;25.46;102194.72;4853650;29;8874;-79
2021/09/06 12:45:50;;;;;;;;;9.80;9.80;;;;;24.76;24.17;102194.44;4860285;29;8870;-77